Time;durP1;ratioP1;P1;durP2;ratioP2;P2;SDS_P1;SDS_P2;PMS_P1;PMS_P2;Temp;Humidity;BMP_temperature;BMP_pressure;BME280_temperature;BME280_humidity;BME280_pressure;Samples;Min_cycle;Max_cycle;Signal;HPM_P1;HPM_P2
2022/09/11 00:01:21;;;;;;;2.03;1.83;;;14.30;99.90;;;;;;4936344;28;20910;-91
2022/09/11 00:03:53;;;;;;;1.97;1.77;;;14.30;99.90;;;;;;4935096;28;20588;-90
2022/09/11 00:06:23;;;;;;;2.10;1.60;;;14.30;99.90;;;;;;4911376;28;20520;-91
2022/09/11 00:08:53;;;;;;;2.00;1.80;;;14.30;99.90;;;;;;4920252;28;20455;-90
2022/09/11 00:11:20;;;;;;;3.43;1.97;;;14.30;99.90;;;;;;4941309;28;20446;-92
2022/09/11 00:13:49;;;;;;;2.90;1.90;;;14.30;99.90;;;;;;4926402;28;20478;-90
2022/09/11 00:16:21;;;;;;;2.20;2.00;;;14.20;99.90;;;;;;4915967;28;20442;-91
2022/09/11 00:18:48;;;;;;;1.70;1.60;;;14.30;99.90;;;;;;4927842;28;20979;-90
2022/09/11 00:21:36;;;;;;;2.60;2.10;;;14.30;99.90;;;;;;4924550;28;20805;-91
2022/09/11 00:24:03;;;;;;;3.80;2.03;;;14.30;99.90;;;;;;4932842;28;20446;-89
2022/09/11 00:26:29;;;;;;;2.63;1.53;;;14.30;99.90;;;;;;4942809;28;20442;-92
2022/09/11 00:28:56;;;;;;;3.10;1.93;;;14.30;99.90;;;;;;4916894;28;20474;-90
2022/09/11 00:31:26;;;;;;;4.83;1.90;;;14.30;99.90;;;;;;4925221;28;20455;-90
2022/09/11 00:33:56;;;;;;;1.80;1.70;;;14.20;99.90;;;;;;4938921;28;20463;-91
2022/09/11 00:36:31;;;;;;;2.20;2.00;;;14.20;99.90;;;;;;4915035;28;20837;-90
2022/09/11 00:39:03;;;;;;;5.77;2.20;;;14.20;99.90;;;;;;4943297;28;20484;-90
2022/09/11 00:41:38;;;;;;;3.33;2.30;;;14.20;99.90;;;;;;4937958;28;20474;-89
2022/09/11 00:44:29;;;;;;;2.60;1.97;;;14.20;99.90;;;;;;4925638;28;20450;-89
2022/09/11 00:47:01;;;;;;;2.30;2.17;;;14.20;99.90;;;;;;4926782;28;20444;-92
2022/09/11 00:49:31;;;;;;;2.40;1.83;;;14.20;99.90;;;;;;4937332;28;20528;-90
2022/09/11 00:52:20;;;;;;;2.80;2.40;;;14.20;99.90;;;;;;4921068;28;20824;-91
2022/09/11 00:54:52;;;;;;;2.60;1.50;;;14.20;99.90;;;;;;4924957;28;20573;-90
2022/09/11 00:57:22;;;;;;;3.27;1.80;;;14.20;99.90;;;;;;4939517;28;20442;-90
2022/09/11 00:59:57;;;;;;;4.80;1.87;;;14.20;99.90;;;;;;4919905;28;20882;-92
2022/09/11 01:02:28;;;;;;;1.70;1.60;;;14.20;99.90;;;;;;4927836;28;20809;-90
2022/09/11 01:04:58;;;;;;;2.30;1.40;;;14.20;99.90;;;;;;4924952;28;20853;-90
2022/09/11 01:07:28;;;;;;;2.23;2.00;;;14.20;99.90;;;;;;4943452;28;20478;-92
2022/09/11 01:10:02;;;;;;;1.80;1.63;;;14.20;99.90;;;;;;4927883;28;20987;-91
2022/09/11 01:12:48;;;;;;;2.10;1.80;;;14.30;99.90;;;;;;4940825;28;20441;-91
2022/09/11 01:15:29;;;;;;;2.13;1.90;;;14.30;99.90;;;;;;4928274;28;20493;-91
2022/09/11 01:18:10;;;;;;;1.90;1.70;;;14.30;99.90;;;;;;4928019;28;20449;-91
2022/09/11 01:21:14;;;;;;;2.53;1.60;;;14.40;99.90;;;;;;4924769;28;21481;-90
2022/09/11 01:23:49;;;;;;;2.67;1.60;;;14.40;99.90;;;;;;4945990;28;20449;-90
2022/09/11 01:26:31;;;;;;;2.00;1.90;;;14.40;99.90;;;;;;4926506;28;20443;-89
2022/09/11 01:29:09;;;;;;;2.10;2.00;;;14.40;99.90;;;;;;4952499;28;20450;-91
2022/09/11 01:32:00;;;;;;;1.73;1.63;;;14.30;99.90;;;;;;4945175;28;20444;-91
2022/09/11 01:34:38;;;;;;;2.33;2.13;;;14.40;99.90;;;;;;4928506;28;20533;-91
2022/09/11 01:37:16;;;;;;;3.90;1.90;;;14.40;99.90;;;;;;4934961;28;20806;-91
2022/09/11 01:39:50;;;;;;;2.27;1.80;;;14.30;99.90;;;;;;4929802;28;20466;-91
2022/09/11 01:42:21;;;;;;;2.13;1.90;;;14.30;99.90;;;;;;4926076;28;20477;-91
2022/09/11 01:44:54;;;;;;;2.80;2.00;;;14.40;99.90;;;;;;4927950;28;20450;-91
2022/09/11 01:47:24;;;;;;;2.63;2.07;;;14.40;99.90;;;;;;4940777;28;20518;-91
2022/09/11 01:50:09;;;;;;;3.03;1.97;;;14.40;99.90;;;;;;4923140;28;20525;-92
2022/09/11 01:53:03;;;;;;;4.17;2.03;;;14.40;99.90;;;;;;4923917;28;20444;-92
2022/09/11 01:55:51;;;;;;;2.00;1.90;;;14.30;99.90;;;;;;4926194;28;20492;-92
2022/09/11 01:58:35;;;;;;;2.90;2.00;;;14.40;99.90;;;;;;4948284;28;20439;-94
2022/09/11 02:01:31;;;;;;;;;;;;;;;;;;;;;
2022/09/11 02:04:33;;;;;;;3.13;2.83;;;14.30;99.90;;;;;;4942009;28;20982;-91
2022/09/11 02:07:13;;;;;;;1.93;1.83;;;14.30;99.90;;;;;;4923830;28;20446;-91
2022/09/11 02:10:10;;;;;;;2.77;2.13;;;14.20;99.90;;;;;;4927563;28;20446;-91
2022/09/11 02:13:02;;;;;;;3.73;1.83;;;14.20;99.90;;;;;;4914924;28;20482;-91
2022/09/11 02:15:39;;;;;;;2.80;1.80;;;14.20;99.90;;;;;;4911227;28;20442;-91
2022/09/11 02:18:23;;;;;;;2.00;1.90;;;14.20;99.90;;;;;;4930631;28;20862;-92
2022/09/11 02:20:51;;;;;;;1.80;1.70;;;14.20;99.90;;;;;;4933656;28;20582;-91
2022/09/11 02:23:21;;;;;;;2.00;1.80;;;14.30;99.90;;;;;;4943180;28;20446;-92
2022/09/11 02:25:51;;;;;;;2.50;1.83;;;14.30;99.90;;;;;;4923499;28;20442;-92
2022/09/11 02:28:17;;;;;;;2.33;2.20;;;14.30;99.90;;;;;;4925584;28;20501;-92
2022/09/11 02:30:44;;;;;;;3.40;2.17;;;14.20;99.90;;;;;;4921006;28;20451;-91
2022/09/11 02:33:30;;;;;;;2.53;2.33;;;14.20;99.90;;;;;;4922319;28;20630;-91
2022/09/11 02:36:33;;;;;;;3.00;2.10;;;14.20;99.90;;;;;;4933687;28;20494;-92
2022/09/11 02:39:20;;;;;;;2.40;2.20;;;14.20;99.90;;;;;;4923743;28;20569;-91
2022/09/11 02:42:11;;;;;;;2.50;2.30;;;14.20;99.90;;;;;;4924462;28;20469;-93
2022/09/11 02:45:09;;;;;;;2.90;2.03;;;14.20;99.90;;;;;;4927013;28;20822;-92
2022/09/11 02:48:09;;;;;;;2.10;1.90;;;14.20;99.90;;;;;;4927906;28;20443;-93
2022/09/11 02:51:00;;;;;;;2.57;2.37;;;14.20;99.90;;;;;;4928691;28;20873;-93
2022/09/11 02:53:46;;;;;;;2.50;2.30;;;14.10;99.90;;;;;;4928639;28;20576;-92
2022/09/11 02:56:33;;;;;;;2.57;2.30;;;14.10;99.90;;;;;;4927381;28;20509;-93
2022/09/11 02:59:15;;;;;;;2.00;1.80;;;14.10;99.90;;;;;;4928947;28;20475;-91
2022/09/11 03:02:13;;;;;;;5.23;2.30;;;14.10;99.90;;;;;;4940648;28;20446;-90
2022/09/11 03:04:44;;;;;;;2.73;2.63;;;14.20;99.90;;;;;;4928303;28;21243;-93
2022/09/11 03:07:12;;;;;;;2.60;2.00;;;14.20;99.90;;;;;;4925164;28;20453;-91
2022/09/11 03:09:38;;;;;;;2.03;1.93;;;14.20;99.90;;;;;;4919635;28;20458;-91
2022/09/11 03:12:06;;;;;;;2.57;2.30;;;14.20;99.90;;;;;;4935501;28;20466;-91
2022/09/11 03:14:34;;;;;;;3.07;2.10;;;14.20;99.90;;;;;;4924963;28;20540;-90
2022/09/11 03:17:00;;;;;;;3.27;2.37;;;14.20;99.90;;;;;;4928411;28;20438;-92
2022/09/11 03:19:27;;;;;;;2.17;1.87;;;14.30;99.90;;;;;;4937744;28;20569;-92
2022/09/11 03:21:52;;;;;;;4.30;2.07;;;14.30;99.90;;;;;;4925163;28;21283;-92
2022/09/11 03:24:18;;;;;;;2.50;2.10;;;14.30;99.90;;;;;;4936587;28;20447;-91
2022/09/11 03:26:44;;;;;;;2.93;2.70;;;14.30;99.90;;;;;;4926766;28;20210;-90
2022/09/11 03:29:09;;;;;;;2.43;2.33;;;14.30;99.90;;;;;;4924323;28;20278;-89
2022/09/11 03:31:35;;;;;;;2.30;2.10;;;14.40;99.90;;;;;;4919856;28;20469;-91
2022/09/11 03:34:00;;;;;;;2.27;2.07;;;14.40;99.90;;;;;;4921050;28;20222;-91
2022/09/11 03:36:26;;;;;;;2.33;2.13;;;14.40;99.90;;;;;;4921901;28;20234;-94
2022/09/11 03:38:52;;;;;;;2.53;2.33;;;14.30;99.90;;;;;;4924180;28;20544;-92
2022/09/11 03:41:18;;;;;;;3.93;2.37;;;14.30;99.90;;;;;;4935204;28;20195;-93
2022/09/11 03:43:43;;;;;;;3.10;2.50;;;14.30;99.90;;;;;;4931209;28;20193;-92
2022/09/11 03:46:09;;;;;;;2.37;2.20;;;14.30;99.90;;;;;;4931039;28;20438;-92
2022/09/11 03:48:35;;;;;;;2.53;2.33;;;14.30;99.90;;;;;;4931713;28;22893;-92
2022/09/11 03:51:01;;;;;;;1.87;1.77;;;14.30;99.90;;;;;;4923242;28;20183;-92
2022/09/11 03:53:26;;;;;;;2.63;2.20;;;14.30;99.90;;;;;;4944682;28;20206;-92
2022/09/11 03:55:53;;;;;;;2.73;2.30;;;14.30;99.90;;;;;;4924522;28;20517;-91
2022/09/11 03:58:19;;;;;;;3.97;2.50;;;14.30;99.90;;;;;;4921177;28;21074;-91
2022/09/11 04:00:46;;;;;;;2.00;1.90;;;14.30;99.90;;;;;;4916968;28;20466;-91
2022/09/11 04:03:14;;;;;;;2.73;2.47;;;14.40;99.90;;;;;;4927285;28;20777;-91
2022/09/11 04:05:42;;;;;;;2.63;2.43;;;14.40;99.90;;;;;;4926538;28;20438;-92
2022/09/11 04:08:13;;;;;;;2.50;2.40;;;14.40;99.90;;;;;;4924175;28;20448;-91
2022/09/11 04:10:39;;;;;;;2.50;2.30;;;14.40;99.90;;;;;;4925127;28;20453;-91
2022/09/11 04:13:05;;;;;;;3.10;2.80;;;14.40;99.90;;;;;;4926118;28;20444;-91
2022/09/11 04:15:31;;;;;;;3.10;2.40;;;14.40;99.90;;;;;;4929692;28;20443;-91
2022/09/11 04:17:57;;;;;;;2.90;2.70;;;14.40;99.90;;;;;;4935214;28;21068;-93
2022/09/11 04:20:26;;;;;;;2.90;2.30;;;14.40;99.90;;;;;;4928466;28;20601;-92
2022/09/11 04:22:51;;;;;;;2.10;2.00;;;14.30;99.90;;;;;;4932588;28;20183;-91
2022/09/11 04:25:17;;;;;;;2.60;2.30;;;14.30;99.90;;;;;;4928345;28;20458;-91
2022/09/11 04:27:42;;;;;;;3.43;2.30;;;14.30;99.90;;;;;;4944732;28;20209;-91
2022/09/11 04:30:08;;;;;;;2.47;2.27;;;14.30;99.90;;;;;;4915546;28;20281;-91
2022/09/11 04:32:34;;;;;;;2.60;2.40;;;14.30;99.90;;;;;;4936545;28;20202;-92
2022/09/11 04:35:00;;;;;;;2.63;2.43;;;14.30;99.90;;;;;;4931449;28;20443;-92
2022/09/11 04:37:27;;;;;;;2.40;2.20;;;14.30;99.90;;;;;;4925148;28;20565;-93
2022/09/11 04:39:53;;;;;;;3.30;2.70;;;14.30;99.90;;;;;;4928114;28;20493;-94
2022/09/11 04:42:19;;;;;;;2.53;2.13;;;14.30;99.90;;;;;;4939807;28;20438;-93
2022/09/11 04:44:45;;;;;;;2.47;2.27;;;14.30;99.90;;;;;;4935754;28;20282;-92
2022/09/11 04:47:11;;;;;;;2.93;2.53;;;14.30;99.90;;;;;;4928721;28;20191;-93
2022/09/11 04:49:39;;;;;;;2.80;2.60;;;14.30;99.90;;;;;;4943297;28;20811;-93
2022/09/11 04:52:06;;;;;;;5.90;2.90;;;14.30;99.90;;;;;;4934775;28;20549;-93
2022/09/11 04:54:32;;;;;;;3.20;2.40;;;14.30;99.90;;;;;;4919723;28;20437;-93
2022/09/11 04:57:01;;;;;;;2.90;2.70;;;14.30;99.90;;;;;;4925369;28;20439;-92
2022/09/11 04:59:26;;;;;;;2.87;2.63;;;14.30;99.90;;;;;;4944028;28;20835;-90
2022/09/11 05:01:53;;;;;;;3.30;2.17;;;14.30;99.90;;;;;;4922191;28;20446;-90
2022/09/11 05:04:19;;;;;;;3.00;2.70;;;14.30;99.90;;;;;;4929314;28;20199;-90
2022/09/11 05:06:47;;;;;;;4.60;2.90;;;14.40;99.90;;;;;;4922200;28;20434;-92
2022/09/11 05:09:13;;;;;;;2.77;2.57;;;14.40;99.90;;;;;;4926678;28;20752;-91
2022/09/11 05:11:39;;;;;;;4.37;3.10;;;14.40;99.90;;;;;;4944228;28;20446;-92
2022/09/11 05:14:05;;;;;;;2.70;2.50;;;14.40;99.90;;;;;;4923651;28;21008;-91
2022/09/11 05:16:33;;;;;;;3.10;2.70;;;14.40;99.90;;;;;;4935465;28;20451;-91
2022/09/11 05:19:01;;;;;;;4.30;2.53;;;14.40;99.90;;;;;;4939027;28;20490;-92
2022/09/11 05:21:27;;;;;;;2.93;2.63;;;14.40;99.90;;;;;;4943983;28;20469;-90
2022/09/11 05:23:56;;;;;;;2.63;2.43;;;14.40;99.90;;;;;;4921697;28;20532;-91
2022/09/11 05:26:30;;;;;;;3.37;2.80;;;14.40;99.90;;;;;;4928512;28;20656;-91
2022/09/11 05:29:06;;;;;;;3.13;2.83;;;14.40;99.90;;;;;;4923266;28;21508;-92
2022/09/11 05:31:32;;;;;;;3.57;2.83;;;14.40;99.90;;;;;;4937102;28;20544;-92
2022/09/11 05:33:59;;;;;;;3.70;3.10;;;14.40;99.90;;;;;;4941439;28;20538;-92
2022/09/11 05:36:26;;;;;;;5.93;2.50;;;14.40;99.90;;;;;;4931555;28;20833;-92
2022/09/11 05:38:52;;;;;;;3.67;2.93;;;14.40;99.90;;;;;;4943188;28;20549;-92
2022/09/11 05:41:19;;;;;;;3.67;3.33;;;14.40;99.90;;;;;;4920924;28;20450;-92
2022/09/11 05:43:47;;;;;;;2.70;2.50;;;14.50;99.90;;;;;;4941743;28;20451;-92
2022/09/11 05:46:15;;;;;;;3.07;2.80;;;14.50;99.90;;;;;;4930595;28;20562;-91
2022/09/11 05:48:42;;;;;;;2.93;2.67;;;14.50;99.90;;;;;;4944491;28;20470;-91
2022/09/11 05:51:11;;;;;;;3.30;2.70;;;14.60;99.90;;;;;;4938434;28;20447;-91
2022/09/11 05:53:37;;;;;;;4.47;2.70;;;14.60;99.90;;;;;;4920353;28;20529;-93
2022/09/11 05:56:13;;;;;;;3.33;2.60;;;14.60;99.90;;;;;;4927019;28;20956;-93
2022/09/11 05:58:59;;;;;;;2.70;2.50;;;14.60;99.90;;;;;;4941358;28;20476;-94
2022/09/11 06:01:26;;;;;;;2.60;2.40;;;14.70;99.90;;;;;;4921138;28;20474;-93
2022/09/11 06:03:52;;;;;;;3.40;3.03;;;14.70;99.90;;;;;;4923941;28;20452;-94
2022/09/11 06:06:20;;;;;;;3.40;3.20;;;14.70;99.90;;;;;;4928070;28;20455;-89
2022/09/11 06:08:46;;;;;;;3.50;3.20;;;14.70;99.90;;;;;;4944362;28;20175;-90
2022/09/11 06:11:15;;;;;;;33.10;29.63;;;14.70;99.90;;;;;;4931042;28;20449;-92
2022/09/11 06:13:42;;;;;;;27.90;25.13;;;14.80;99.90;;;;;;4943919;28;20450;-91
2022/09/11 06:16:22;;;;;;;3.03;2.73;;;14.80;99.90;;;;;;4925292;28;21728;-96
2022/09/11 06:18:49;;;;;;;3.87;2.97;;;14.90;99.90;;;;;;4934983;28;20474;-95
2022/09/11 06:21:18;;;;;;;3.43;3.13;;;15.00;99.90;;;;;;4931516;28;20445;-96
2022/09/11 06:23:43;;;;;;;3.13;2.93;;;15.00;99.90;;;;;;4933522;28;21185;-95
2022/09/11 06:26:13;;;;;;;3.00;2.70;;;15.10;99.90;;;;;;4929490;28;20447;-92
2022/09/11 06:28:41;;;;;;;2.73;2.50;;;15.10;99.90;;;;;;4942060;28;20226;-92
2022/09/11 06:31:11;;;;;;;2.87;2.67;;;15.10;99.90;;;;;;4924833;28;20455;-94
2022/09/11 06:33:38;;;;;;;4.10;3.00;;;15.10;99.90;;;;;;4925356;28;20473;-89
2022/09/11 06:36:06;;;;;;;3.60;2.67;;;15.10;99.90;;;;;;4917910;28;20459;-90
2022/09/11 06:38:32;;;;;;;5.33;3.60;;;15.10;99.90;;;;;;4940132;28;20506;-89
2022/09/11 06:41:33;;;;;;;3.47;2.67;;;15.10;99.90;;;;;;4934028;28;20482;-96
2022/09/11 06:52:22;;;;;;;2.80;2.60;;;15.20;99.90;;;;;;4946045;28;20889;-88
2022/09/11 06:54:56;;;;;;;2.90;2.70;;;15.20;99.90;;;;;;4944354;28;21181;-90
2022/09/11 06:57:23;;;;;;;4.50;4.10;;;15.20;99.90;;;;;;4905123;28;20445;-90
2022/09/11 06:59:51;;;;;;;3.37;3.13;;;15.20;99.90;;;;;;4919086;28;20489;-91
2022/09/11 07:02:18;;;;;;;3.30;3.00;;;15.30;99.90;;;;;;4940827;28;20449;-92
2022/09/11 07:04:45;;;;;;;3.53;3.30;;;15.30;99.90;;;;;;4932172;28;20793;-96
2022/09/11 07:07:11;;;;;;;3.73;3.40;;;15.30;99.90;;;;;;4939989;28;20430;-96
2022/09/11 07:09:36;;;;;;;3.13;2.93;;;15.40;99.90;;;;;;4951861;28;20453;-96
2022/09/11 07:12:02;;;;;;;3.23;3.03;;;15.50;99.90;;;;;;4942931;28;20185;-95
2022/09/11 08:16:41;;;;;;;14.13;12.87;;;16.40;99.90;;;;;;4949483;28;20488;-91
2022/09/11 08:19:19;;;;;;;31.27;28.60;;;16.50;99.90;;;;;;4941502;28;20472;-90
2022/09/11 08:22:02;;;;;;;6.53;5.93;;;16.70;99.90;;;;;;4942194;28;20587;-89
2022/09/11 08:24:30;;;;;;;6.93;6.27;;;16.80;99.90;;;;;;4939925;28;20446;-91
2022/09/11 08:27:18;;;;;;;6.37;5.87;;;16.60;99.90;;;;;;4946786;28;20442;-95
2022/09/11 08:29:44;;;;;;;7.00;6.30;;;16.70;99.90;;;;;;4932107;28;20439;-92
2022/09/11 08:32:12;;;;;;;7.37;6.70;;;16.90;99.90;;;;;;4945298;28;20465;-93
2022/09/11 08:34:38;;;;;;;6.70;6.20;;;17.00;99.90;;;;;;4943254;28;20888;-93
2022/09/11 08:37:03;;;;;;;8.03;7.33;;;17.10;99.90;;;;;;4945498;28;20458;-93
2022/09/11 08:39:29;;;;;;;7.50;6.67;;;17.10;99.90;;;;;;4935916;28;20237;-93
2022/09/11 08:42:01;;;;;;;6.73;6.13;;;17.00;99.90;;;;;;4938208;28;20193;-93
2022/09/11 08:44:38;;;;;;;7.60;6.90;;;16.90;99.90;;;;;;4946407;28;20190;-93
2022/09/11 08:47:14;;;;;;;7.00;6.40;;;17.00;99.90;;;;;;4955784;28;20441;-94
2022/09/11 08:49:43;;;;;;;5.90;5.50;;;17.20;99.90;;;;;;4948826;28;20456;-92
2022/09/11 08:52:12;;;;;;;5.90;5.40;;;17.50;99.90;;;;;;4940470;28;20434;-93
2022/09/11 08:54:41;;;;;;;5.07;4.50;;;17.60;99.90;;;;;;4960073;28;20501;-92
2022/09/11 08:57:19;;;;;;;7.50;6.77;;;17.80;99.90;;;;;;4941475;28;21000;-93
2022/09/11 09:00:01;;;;;;;5.90;5.30;;;17.80;99.90;;;;;;4950428;28;20473;-92
2022/09/11 09:03:05;;;;;;;6.40;5.70;;;17.70;99.90;;;;;;4945126;28;20485;-92
2022/09/11 09:06:08;;;;;;;8.60;7.90;;;17.70;99.90;;;;;;4936329;28;20454;-92
2022/09/11 09:09:03;;;;;;;8.70;7.87;;;17.60;99.90;;;;;;4946602;28;20430;-92
2022/09/11 09:11:54;;;;;;;8.20;7.47;;;17.60;99.90;;;;;;4936120;28;21659;-92
2022/09/11 09:14:28;;;;;;;8.70;7.97;;;18.00;99.90;;;;;;4949696;28;20433;-93
2022/09/11 09:17:18;;;;;;;7.77;7.07;;;18.20;99.90;;;;;;4965587;28;20495;-92
2022/09/11 09:19:51;;;;;;;9.70;8.77;;;17.90;99.90;;;;;;4919409;28;20983;-90
2022/09/11 09:23:01;;;;;;;8.67;7.80;;;17.60;99.90;;;;;;4951672;28;20452;-94
2022/09/11 09:25:29;;;;;;;8.53;7.83;;;17.60;99.90;;;;;;4890834;29;20470;-92
2022/09/11 09:28:00;;;;;;;8.17;7.37;;;17.80;99.90;;;;;;4936175;28;20445;-93
2022/09/11 09:30:29;;;;;;;8.30;7.60;;;18.00;99.90;;;;;;4951160;28;21164;-93
2022/09/11 09:33:05;;;;;;;8.00;7.40;;;18.10;99.90;;;;;;4953163;28;20444;-93
2022/09/11 09:35:42;;;;;;;7.93;7.33;;;17.80;99.90;;;;;;4951538;28;21012;-93
2022/09/11 09:38:21;;;;;;;7.63;6.90;;;17.60;99.90;;;;;;4945393;28;20861;-92
2022/09/11 09:41:06;;;;;;;7.50;6.80;;;17.70;99.90;;;;;;4950835;28;20481;-93
2022/09/11 09:43:59;;;;;;;7.90;7.30;;;17.80;99.90;;;;;;4966440;28;20442;-92
2022/09/11 09:46:54;;;;;;;7.73;7.10;;;17.90;99.90;;;;;;4953823;28;20457;-93
2022/09/11 09:49:34;;;;;;;7.70;7.10;;;18.00;99.90;;;;;;4953558;28;20500;-93
2022/09/11 09:52:34;;;;;;;7.20;6.60;;;17.90;99.90;;;;;;4949654;28;20527;-93
2022/09/11 09:55:06;;;;;;;7.40;6.63;;;17.80;99.90;;;;;;4940032;28;20521;-92
2022/09/11 09:57:35;;;;;;;7.93;7.23;;;18.00;99.90;;;;;;4952145;28;20438;-92
2022/09/11 10:00:21;;;;;;;6.43;5.93;;;18.70;99.90;;;;;;4952388;28;21117;-92
2022/09/11 10:02:53;;;;;;;5.83;5.43;;;19.40;99.90;;;;;;4952028;28;20521;-92
2022/09/11 10:05:28;;;;;;;5.90;5.40;;;20.20;99.90;;;;;;4952363;28;20481;-91
2022/09/11 10:08:32;;;;;;;5.40;5.00;;;20.80;99.90;;;;;;4971151;28;20433;-91
2022/09/11 10:11:00;;;;;;;5.40;4.90;;;21.30;99.90;;;;;;4955008;28;20426;-92
2022/09/11 10:13:37;;;;;;;5.80;5.40;;;22.00;99.90;;;;;;4950395;28;20600;-91
2022/09/11 10:16:18;;;;;;;6.97;6.37;;;21.70;99.90;;;;;;4951000;28;20521;-91
2022/09/11 10:18:46;;;;;;;6.97;6.37;;;19.80;99.90;;;;;;4962134;28;20465;-91
2022/09/11 10:21:21;;;;;;;6.10;5.60;;;19.30;99.90;;;;;;4963405;28;20971;-91
2022/09/11 10:23:59;;;;;;;6.73;6.20;;;19.00;99.90;;;;;;4951604;28;20460;-91
2022/09/11 10:26:42;;;;;;;7.50;6.80;;;18.80;99.90;;;;;;4955082;28;21559;-90
2022/09/11 10:29:18;;;;;;;6.60;6.10;;;18.90;99.90;;;;;;4952277;28;20441;-90
2022/09/11 10:32:02;;;;;;;7.63;6.93;;;18.90;99.90;;;;;;4949915;28;20954;-91
2022/09/11 10:34:39;;;;;;;7.47;6.87;;;18.90;99.90;;;;;;4947770;28;20438;-92
2022/09/11 10:37:13;;;;;;;6.30;5.70;;;18.80;99.90;;;;;;4950413;28;20438;-91
2022/09/11 10:39:41;;;;;;;5.13;4.73;;;18.90;99.90;;;;;;4956208;28;20469;-90
2022/09/11 10:42:15;;;;;;;5.60;5.20;;;19.00;99.90;;;;;;4950932;28;20441;-91
2022/09/11 10:44:44;;;;;;;6.00;5.60;;;19.00;99.90;;;;;;4944683;28;20422;-91
2022/09/11 10:47:22;;;;;;;5.50;5.10;;;19.10;99.90;;;;;;4948457;28;20444;-90
2022/09/11 10:49:48;;;;;;;5.60;5.20;;;19.10;99.90;;;;;;4948882;28;20500;-90
2022/09/11 10:52:21;;;;;;;5.43;5.00;;;19.10;99.90;;;;;;4961571;28;20441;-91
2022/09/11 10:55:05;;;;;;;5.73;5.33;;;19.30;99.90;;;;;;4950077;28;20258;-91
2022/09/11 10:57:44;;;;;;;6.90;5.47;;;19.60;99.90;;;;;;4945082;28;20438;-91
2022/09/11 11:00:26;;;;;;;6.10;5.70;;;19.80;99.90;;;;;;4951390;28;20488;-91
2022/09/11 11:02:56;;;;;;;6.00;5.60;;;20.20;99.90;;;;;;4945100;28;20970;-91
2022/09/11 11:05:43;;;;;;;5.43;5.03;;;20.40;99.90;;;;;;4948809;28;20434;-92
2022/09/11 11:08:30;;;;;;;5.87;5.40;;;20.50;99.90;;;;;;4965454;28;20453;-90
2022/09/11 11:11:24;;;;;;;6.17;5.57;;;20.40;99.90;;;;;;4948214;28;20481;-91
2022/09/11 11:14:12;;;;;;;5.20;4.80;;;20.60;99.90;;;;;;4969289;28;20438;-90
2022/09/11 11:17:14;;;;;;;6.20;5.70;;;21.30;99.90;;;;;;4948834;28;20534;-90
2022/09/11 11:20:00;;;;;;;5.87;5.40;;;21.70;99.00;;;;;;4945195;28;20562;-91
2022/09/11 11:23:01;;;;;;;4.97;4.67;;;22.60;98.80;;;;;;4964359;28;20528;-91
2022/09/11 11:25:30;;;;;;;6.00;5.33;;;23.60;98.10;;;;;;4947371;28;21011;-90
2022/09/11 11:28:20;;;;;;;5.63;5.23;;;23.60;96.40;;;;;;4958294;28;20924;-91
2022/09/11 11:31:03;;;;;;;5.03;4.70;;;23.20;97.30;;;;;;4952038;28;21018;-90
2022/09/11 11:33:36;;;;;;;5.50;5.00;;;22.60;97.60;;;;;;4942494;28;20461;-91
2022/09/11 11:36:07;;;;;;;5.77;5.37;;;22.90;99.50;;;;;;4947032;28;20461;-90
2022/09/11 11:38:59;;;;;;;5.10;4.70;;;23.40;98.20;;;;;;4945645;28;20449;-91
2022/09/11 11:41:47;;;;;;;5.40;5.00;;;23.70;98.60;;;;;;4948832;28;20459;-91
2022/09/11 11:44:38;;;;;;;5.80;5.30;;;22.80;99.90;;;;;;4947528;28;20810;-90
2022/09/11 11:47:09;;;;;;;5.30;4.90;;;22.20;99.90;;;;;;4953337;28;20450;-90
2022/09/11 11:49:54;;;;;;;5.30;5.00;;;21.90;99.90;;;;;;4945531;28;20434;-91
2022/09/11 11:52:39;;;;;;;6.00;5.60;;;21.80;99.90;;;;;;4944156;28;20876;-90
2022/09/11 11:55:24;;;;;;;5.77;5.17;;;21.70;99.90;;;;;;4947199;28;20445;-90
2022/09/11 11:58:03;;;;;;;5.30;4.90;;;21.50;99.90;;;;;;4946941;28;20450;-89
2022/09/11 12:00:37;;;;;;;5.33;4.93;;;21.20;99.90;;;;;;4946368;28;20485;-90
2022/09/11 12:03:20;;;;;;;5.40;5.10;;;21.30;99.90;;;;;;4956084;28;20433;-90
2022/09/11 12:05:46;;;;;;;6.27;5.77;;;21.40;99.90;;;;;;4949906;28;20441;-89
2022/09/11 12:08:15;;;;;;;5.87;5.40;;;21.30;99.90;;;;;;4947514;28;21017;-91
2022/09/11 12:10:51;;;;;;;5.33;5.03;;;21.10;99.90;;;;;;4941111;28;20214;-91
2022/09/11 12:13:20;;;;;;;5.17;4.77;;;20.90;99.90;;;;;;4948756;28;20575;-90
2022/09/11 12:16:07;;;;;;;5.80;5.40;;;20.80;99.90;;;;;;4949592;28;21620;-91
2022/09/11 12:18:33;;;;;;;5.60;5.20;;;20.50;99.90;;;;;;4949851;28;20440;-90
2022/09/11 12:21:23;;;;;;;6.37;5.90;;;20.60;99.90;;;;;;4954291;28;20453;-91
2022/09/11 12:23:49;;;;;;;6.00;5.50;;;20.40;99.90;;;;;;4952439;28;20189;-91
2022/09/11 12:26:16;;;;;;;6.50;6.00;;;20.20;99.90;;;;;;4948126;28;20794;-91
2022/09/11 12:28:42;;;;;;;5.10;4.70;;;20.30;99.90;;;;;;4949524;28;20292;-90
2022/09/11 12:31:10;;;;;;;5.50;5.10;;;20.60;99.90;;;;;;4957243;28;20500;-91
2022/09/11 12:33:43;;;;;;;6.70;6.23;;;21.00;99.90;;;;;;4952239;28;20183;-90
2022/09/11 12:36:32;;;;;;;5.93;5.43;;;21.50;99.90;;;;;;4950251;28;20850;-91
2022/09/11 12:39:23;;;;;;;6.63;6.13;;;22.10;99.90;;;;;;4955338;28;20471;-90
2022/09/11 12:41:49;;;;;;;6.67;6.17;;;23.00;99.40;;;;;;4948055;28;20461;-90
2022/09/11 12:44:30;;;;;;;5.20;4.90;;;22.60;97.50;;;;;;4968879;28;20462;-90
2022/09/11 12:46:56;;;;;;;5.57;5.17;;;22.30;97.80;;;;;;4964870;28;20214;-90
2022/09/11 12:49:23;;;;;;;6.40;5.90;;;22.10;97.80;;;;;;4968251;28;20477;-90
2022/09/11 12:51:55;;;;;;;5.60;5.20;;;22.00;99.40;;;;;;4952237;28;20186;-90
2022/09/11 12:54:41;;;;;;;5.90;5.40;;;21.70;98.40;;;;;;4951043;28;20924;-90
2022/09/11 12:57:14;;;;;;;6.07;5.67;;;22.00;98.20;;;;;;4950478;28;20445;-90
2022/09/11 12:59:45;;;;;;;6.33;5.73;;;22.40;98.20;;;;;;4948479;28;20476;-90
2022/09/11 13:02:41;;;;;;;5.50;5.10;;;22.10;98.00;;;;;;4951160;28;20425;-90
2022/09/11 13:05:23;;;;;;;5.20;4.90;;;22.10;98.40;;;;;;4960896;28;20440;-89
2022/09/11 13:07:57;;;;;;;5.27;4.87;;;22.00;97.50;;;;;;4942321;28;20442;-90
2022/09/11 13:10:37;;;;;;;4.73;4.43;;;21.70;97.00;;;;;;4949286;28;20442;-90
2022/09/11 13:13:06;;;;;;;5.97;5.47;;;21.80;97.30;;;;;;4945993;28;20529;-90
2022/09/11 13:15:32;;;;;;;5.60;5.10;;;21.60;97.50;;;;;;4964838;28;20520;-90
2022/09/11 13:17:58;;;;;;;5.97;5.57;;;21.20;98.90;;;;;;4950229;28;20500;-89
2022/09/11 13:20:24;;;;;;;5.27;4.87;;;21.10;98.80;;;;;;4967861;28;20504;-90
2022/09/11 13:22:51;;;;;;;6.10;5.60;;;21.50;99.70;;;;;;4949330;28;20530;-90
2022/09/11 13:25:20;;;;;;;5.87;5.47;;;22.10;99.90;;;;;;4965497;28;20273;-91
2022/09/11 13:28:00;;;;;;;5.83;5.37;;;22.30;98.40;;;;;;4945332;28;20434;-91
2022/09/11 13:30:26;;;;;;;5.90;5.50;;;22.20;98.10;;;;;;4952124;28;20444;-90
2022/09/11 13:33:07;;;;;;;6.30;5.80;;;21.90;97.50;;;;;;4950547;28;20441;-90
2022/09/11 13:35:35;;;;;;;6.03;5.40;;;21.80;98.70;;;;;;4958019;28;20454;-90
2022/09/11 13:38:03;;;;;;;5.13;4.70;;;21.90;99.90;;;;;;4949118;28;20485;-91
2022/09/11 13:40:35;;;;;;;6.03;5.53;;;21.70;99.20;;;;;;4950477;28;20527;-90
2022/09/11 13:43:01;;;;;;;5.60;5.17;;;21.50;99.10;;;;;;4947047;28;20809;-90
2022/09/11 13:45:27;;;;;;;5.30;4.87;;;21.30;98.10;;;;;;4952916;28;20452;-90
2022/09/11 13:47:53;;;;;;;5.07;4.77;;;21.30;98.30;;;;;;4950878;28;20487;-91
2022/09/11 13:50:21;;;;;;;5.43;5.03;;;21.40;99.20;;;;;;4966530;28;20477;-90
2022/09/11 13:52:48;;;;;;;5.80;5.40;;;21.60;99.00;;;;;;4941371;28;20521;-90
2022/09/11 13:55:28;;;;;;;5.70;5.20;;;21.40;98.90;;;;;;4953991;28;20433;-90
2022/09/11 13:57:59;;;;;;;5.27;4.77;;;21.80;99.20;;;;;;4948757;28;20450;-90
2022/09/11 14:00:46;;;;;;;5.57;5.17;;;22.20;98.20;;;;;;4949398;28;21014;-90
2022/09/11 14:03:21;;;;;;;5.20;4.80;;;22.10;97.50;;;;;;4948685;28;20504;-90
2022/09/11 14:05:56;;;;;;;5.60;5.20;;;21.90;97.80;;;;;;4951020;28;20646;-90
2022/09/11 14:08:27;;;;;;;5.63;5.23;;;22.60;98.60;;;;;;4945498;28;20448;-91
2022/09/11 14:10:55;;;;;;;5.17;4.77;;;23.20;96.60;;;;;;4953562;28;20430;-90
2022/09/11 14:13:31;;;;;;;5.10;4.70;;;23.20;96.50;;;;;;4944493;28;20449;-90
2022/09/11 14:16:03;;;;;;;4.90;4.50;;;23.50;96.60;;;;;;4948427;28;20500;-90
2022/09/11 14:18:36;;;;;;;6.70;6.20;;;23.80;97.30;;;;;;4948201;28;20516;-90
2022/09/11 14:21:05;;;;;;;6.57;5.70;;;23.60;97.60;;;;;;4946153;28;20560;-90
2022/09/11 14:23:38;;;;;;;5.67;5.27;;;23.70;96.70;;;;;;4950137;28;20433;-90
2022/09/11 14:26:15;;;;;;;6.00;5.50;;;23.10;95.40;;;;;;4949919;28;20453;-90
2022/09/11 14:28:55;;;;;;;5.70;5.20;;;22.50;96.30;;;;;;4947698;28;20555;-91
2022/09/11 14:31:41;;;;;;;6.13;5.73;;;22.40;96.90;;;;;;4944394;28;20446;-90
2022/09/11 14:34:25;;;;;;;5.53;5.03;;;22.50;98.10;;;;;;4948352;28;20457;-91
2022/09/11 14:36:55;;;;;;;4.83;4.53;;;22.70;98.10;;;;;;4952071;28;20496;-90